sensor_id;sensor_type;location;lat;lon;timestamp;temperature;humidity
67893;DHT22;54688;52.376;16.744;2023-07-09T00:01:26;17.8;53.9
67893;DHT22;54688;52.376;16.744;2023-07-09T00:04:29;17.8;54.2
67893;DHT22;54688;52.376;16.744;2023-07-09T00:07:32;17.8;54.2
67893;DHT22;54688;52.376;16.744;2023-07-09T00:10:35;17.7;54.2
67893;DHT22;54688;52.376;16.744;2023-07-09T00:13:37;17.7;54
67893;DHT22;54688;52.376;16.744;2023-07-09T00:16:40;17.7;54.1
67893;DHT22;54688;52.376;16.744;2023-07-09T00:19:43;17.6;54.2
67893;DHT22;54688;52.376;16.744;2023-07-09T00:22:46;17.6;54.7
67893;DHT22;54688;52.376;16.744;2023-07-09T00:25:47;17.5;55
67893;DHT22;54688;52.376;16.744;2023-07-09T00:28:50;17.5;55.4
67893;DHT22;54688;52.376;16.744;2023-07-09T00:31:53;17.4;55.7
67893;DHT22;54688;52.376;16.744;2023-07-09T00:34:55;17.3;56.1
67893;DHT22;54688;52.376;16.744;2023-07-09T00:37:57;17.3;56.5
67893;DHT22;54688;52.376;16.744;2023-07-09T00:41:00;17.2;56.9
67893;DHT22;54688;52.376;16.744;2023-07-09T00:44:18;17.2;57.1
67893;DHT22;54688;52.376;16.744;2023-07-09T00:47:31;17.1;57.2
67893;DHT22;54688;52.376;16.744;2023-07-09T00:50:42;17;57.2
67893;DHT22;54688;52.376;16.744;2023-07-09T00:53:50;17;57.3
67893;DHT22;54688;52.376;16.744;2023-07-09T00:56:54;16.9;57.6
67893;DHT22;54688;52.376;16.744;2023-07-09T00:59:58;16.9;58.5
67893;DHT22;54688;52.376;16.744;2023-07-09T01:03:05;16.8;59.3
67893;DHT22;54688;52.376;16.744;2023-07-09T01:06:09;16.8;59.4
67893;DHT22;54688;52.376;16.744;2023-07-09T01:09:12;16.7;59.6
67893;DHT22;54688;52.376;16.744;2023-07-09T01:12:16;16.7;59.5
67893;DHT22;54688;52.376;16.744;2023-07-09T01:15:22;16.6;59
67893;DHT22;54688;52.376;16.744;2023-07-09T01:18:25;16.6;59.1
67893;DHT22;54688;52.376;16.744;2023-07-09T01:21:27;16.5;59.1
67893;DHT22;54688;52.376;16.744;2023-07-09T01:24:52;16.4;59.4
67893;DHT22;54688;52.376;16.744;2023-07-09T01:27:58;16.4;58.9
67893;DHT22;54688;52.376;16.744;2023-07-09T01:30:59;16.3;59.3
67893;DHT22;54688;52.376;16.744;2023-07-09T01:34:01;16.2;58.7
67893;DHT22;54688;52.376;16.744;2023-07-09T01:37:04;16.2;59.8
67893;DHT22;54688;52.376;16.744;2023-07-09T01:40:07;16.1;61.5
67893;DHT22;54688;52.376;16.744;2023-07-09T01:43:11;16;61.4
67893;DHT22;54688;52.376;16.744;2023-07-09T01:46:14;16;61
67893;DHT22;54688;52.376;16.744;2023-07-09T01:49:16;15.9;61.8
67893;DHT22;54688;52.376;16.744;2023-07-09T01:52:19;15.9;61.8
67893;DHT22;54688;52.376;16.744;2023-07-09T01:55:21;15.8;62.3
67893;DHT22;54688;52.376;16.744;2023-07-09T01:58:23;15.7;62.7
67893;DHT22;54688;52.376;16.744;2023-07-09T02:01:25;15.7;63.7
67893;DHT22;54688;52.376;16.744;2023-07-09T02:04:27;15.7;63.7
67893;DHT22;54688;52.376;16.744;2023-07-09T02:07:31;15.7;63.8
67893;DHT22;54688;52.376;16.744;2023-07-09T02:10:34;15.7;63.6
67893;DHT22;54688;52.376;16.744;2023-07-09T02:13:37;15.6;63.4
67893;DHT22;54688;52.376;16.744;2023-07-09T02:16:38;15.5;63.6
67893;DHT22;54688;52.376;16.744;2023-07-09T02:19:40;15.5;63.3
67893;DHT22;54688;52.376;16.744;2023-07-09T02:22:43;15.5;63.3
67893;DHT22;54688;52.376;16.744;2023-07-09T02:25:46;15.4;63.8
67893;DHT22;54688;52.376;16.744;2023-07-09T02:28:48;15.4;63.8
67893;DHT22;54688;52.376;16.744;2023-07-09T02:31:50;15.3;63.7
67893;DHT22;54688;52.376;16.744;2023-07-09T02:34:54;15.2;63.8
67893;DHT22;54688;52.376;16.744;2023-07-09T02:37:56;15.2;64.4
67893;DHT22;54688;52.376;16.744;2023-07-09T02:40:58;15.2;64.8
67893;DHT22;54688;52.376;16.744;2023-07-09T02:44:00;15.1;65.5
67893;DHT22;54688;52.376;16.744;2023-07-09T02:47:02;15.1;64.8
67893;DHT22;54688;52.376;16.744;2023-07-09T02:50:04;15;65.1
67893;DHT22;54688;52.376;16.744;2023-07-09T02:53:07;15;64.5
67893;DHT22;54688;52.376;16.744;2023-07-09T02:56:10;15;64.9
67893;DHT22;54688;52.376;16.744;2023-07-09T02:59:12;15;66.6
67893;DHT22;54688;52.376;16.744;2023-07-09T03:02:15;15;67.1
67893;DHT22;54688;52.376;16.744;2023-07-09T03:05:17;15.1;67.1
67893;DHT22;54688;52.376;16.744;2023-07-09T03:08:19;15.1;67.1
67893;DHT22;54688;52.376;16.744;2023-07-09T03:11:22;15.2;66.7
67893;DHT22;54688;52.376;16.744;2023-07-09T03:14:24;15.2;66.2
67893;DHT22;54688;52.376;16.744;2023-07-09T03:17:28;15.2;66.5
67893;DHT22;54688;52.376;16.744;2023-07-09T03:20:29;15.2;66.4
67893;DHT22;54688;52.376;16.744;2023-07-09T03:23:31;15.2;66.5
67893;DHT22;54688;52.376;16.744;2023-07-09T03:26:33;15.2;66.6
67893;DHT22;54688;52.376;16.744;2023-07-09T03:29:36;15.2;66.8
67893;DHT22;54688;52.376;16.744;2023-07-09T03:32:40;15.2;67.1
67893;DHT22;54688;52.376;16.744;2023-07-09T03:35:42;15.2;67
67893;DHT22;54688;52.376;16.744;2023-07-09T03:38:45;15.2;67.1
67893;DHT22;54688;52.376;16.744;2023-07-09T03:41:49;15.2;67.3
67893;DHT22;54688;52.376;16.744;2023-07-09T03:45:11;15.2;67.3
67893;DHT22;54688;52.376;16.744;2023-07-09T03:48:15;15.2;67.2
67893;DHT22;54688;52.376;16.744;2023-07-09T03:51:18;15.2;67.1
67893;DHT22;54688;52.376;16.744;2023-07-09T03:54:21;15.2;66.9
67893;DHT22;54688;52.376;16.744;2023-07-09T03:57:23;15.2;66.8
67893;DHT22;54688;52.376;16.744;2023-07-09T04:00:25;15.2;66.8
67893;DHT22;54688;52.376;16.744;2023-07-09T04:03:27;15.2;67.1
67893;DHT22;54688;52.376;16.744;2023-07-09T04:06:29;15.4;67.2
67893;DHT22;54688;52.376;16.744;2023-07-09T04:09:33;15.4;66.8
67893;DHT22;54688;52.376;16.744;2023-07-09T04:12:35;15.6;66.5
67893;DHT22;54688;52.376;16.744;2023-07-09T04:15:38;15.7;65.9
67893;DHT22;54688;52.376;16.744;2023-07-09T04:18:40;15.7;65.7
67893;DHT22;54688;52.376;16.744;2023-07-09T04:21:43;15.7;65.6
67893;DHT22;54688;52.376;16.744;2023-07-09T04:24:45;15.7;65.6
67893;DHT22;54688;52.376;16.744;2023-07-09T04:27:47;15.7;65.8
67893;DHT22;54688;52.376;16.744;2023-07-09T04:30:50;15.7;65.8
67893;DHT22;54688;52.376;16.744;2023-07-09T04:33:54;15.7;65.9
67893;DHT22;54688;52.376;16.744;2023-07-09T04:36:57;15.7;65.8
67893;DHT22;54688;52.376;16.744;2023-07-09T04:40:00;15.7;65.9
67893;DHT22;54688;52.376;16.744;2023-07-09T04:43:03;15.7;65.9
67893;DHT22;54688;52.376;16.744;2023-07-09T04:46:04;15.7;65.9
67893;DHT22;54688;52.376;16.744;2023-07-09T04:49:07;15.8;66
67893;DHT22;54688;52.376;16.744;2023-07-09T04:52:11;15.8;66.1
67893;DHT22;54688;52.376;16.744;2023-07-09T04:55:12;15.8;66
67893;DHT22;54688;52.376;16.744;2023-07-09T04:58:15;15.9;66
67893;DHT22;54688;52.376;16.744;2023-07-09T05:01:17;16;66.3
67893;DHT22;54688;52.376;16.744;2023-07-09T05:04:20;16;66.1
67893;DHT22;54688;52.376;16.744;2023-07-09T05:07:24;16.1;66.1
67893;DHT22;54688;52.376;16.744;2023-07-09T05:13:26;16.3;65.5
67893;DHT22;54688;52.376;16.744;2023-07-09T05:16:28;16.5;64.8
67893;DHT22;54688;52.376;16.744;2023-07-09T05:19:31;16.7;64
67893;DHT22;54688;52.376;16.744;2023-07-09T05:22:33;16.7;63.5
67893;DHT22;54688;52.376;16.744;2023-07-09T05:25:36;16.8;63
67893;DHT22;54688;52.376;16.744;2023-07-09T05:28:38;16.8;63
67893;DHT22;54688;52.376;16.744;2023-07-09T05:31:40;16.8;62.6
67893;DHT22;54688;52.376;16.744;2023-07-09T05:34:43;16.9;62.3
67893;DHT22;54688;52.376;16.744;2023-07-09T05:37:44;16.9;62.2
67893;DHT22;54688;52.376;16.744;2023-07-09T05:40:47;17;61.8
67893;DHT22;54688;52.376;16.744;2023-07-09T05:43:50;17;61.2
67893;DHT22;54688;52.376;16.744;2023-07-09T05:46:52;17.1;61.1
67893;DHT22;54688;52.376;16.744;2023-07-09T05:49:54;17.2;60.9
67893;DHT22;54688;52.376;16.744;2023-07-09T05:52:57;17.2;60.7
67893;DHT22;54688;52.376;16.744;2023-07-09T05:55:59;17.2;60.6
67893;DHT22;54688;52.376;16.744;2023-07-09T05:59:01;17.4;60.3
67893;DHT22;54688;52.376;16.744;2023-07-09T06:02:06;17.5;59.7
67893;DHT22;54688;52.376;16.744;2023-07-09T06:05:13;17.7;59
67893;DHT22;54688;52.376;16.744;2023-07-09T06:08:15;17.9;58.5
67893;DHT22;54688;52.376;16.744;2023-07-09T06:11:18;18;57.4
67893;DHT22;54688;52.376;16.744;2023-07-09T06:14:20;18.1;57.1
67893;DHT22;54688;52.376;16.744;2023-07-09T06:17:23;18.3;56.6
67893;DHT22;54688;52.376;16.744;2023-07-09T06:20:26;18.4;56.3
67893;DHT22;54688;52.376;16.744;2023-07-09T06:23:28;18.5;55.5
67893;DHT22;54688;52.376;16.744;2023-07-09T06:26:31;18.6;55.3
67893;DHT22;54688;52.376;16.744;2023-07-09T06:29:32;18.7;55.6
67893;DHT22;54688;52.376;16.744;2023-07-09T06:32:34;18.8;55.2
67893;DHT22;54688;52.376;16.744;2023-07-09T06:35:37;18.9;55
67893;DHT22;54688;52.376;16.744;2023-07-09T06:38:39;19;53.4
67893;DHT22;54688;52.376;16.744;2023-07-09T06:41:41;19.1;53.3
67893;DHT22;54688;52.376;16.744;2023-07-09T06:44:44;19.2;53.1
67893;DHT22;54688;52.376;16.744;2023-07-09T06:47:46;19.4;52.7
67893;DHT22;54688;52.376;16.744;2023-07-09T06:50:48;19.6;52.7
67893;DHT22;54688;52.376;16.744;2023-07-09T06:53:50;19.6;52.1
67893;DHT22;54688;52.376;16.744;2023-07-09T06:56:52;19.7;52
67893;DHT22;54688;52.376;16.744;2023-07-09T07:02:53;19.9;51
67893;DHT22;54688;52.376;16.744;2023-07-09T07:05:57;20;50.7
67893;DHT22;54688;52.376;16.744;2023-07-09T07:09:00;20.2;50.6
67893;DHT22;54688;52.376;16.744;2023-07-09T07:12:03;20.3;50.3
67893;DHT22;54688;52.376;16.744;2023-07-09T07:15:07;20.4;49.3
67893;DHT22;54688;52.376;16.744;2023-07-09T07:18:10;20.5;49.4
67893;DHT22;54688;52.376;16.744;2023-07-09T07:21:13;20.5;49
67893;DHT22;54688;52.376;16.744;2023-07-09T07:24:14;20.7;49.2
67893;DHT22;54688;52.376;16.744;2023-07-09T07:27:17;20.7;48.8
67893;DHT22;54688;52.376;16.744;2023-07-09T07:30:19;20.8;49
67893;DHT22;54688;52.376;16.744;2023-07-09T07:33:22;20.9;48.4
67893;DHT22;54688;52.376;16.744;2023-07-09T07:36:24;20.9;47.6
67893;DHT22;54688;52.376;16.744;2023-07-09T07:39:26;21.1;47.8
67893;DHT22;54688;52.376;16.744;2023-07-09T07:42:29;21.1;47.7
67893;DHT22;54688;52.376;16.744;2023-07-09T07:45:31;21.2;47.5
67893;DHT22;54688;52.376;16.744;2023-07-09T07:48:34;21.3;47.3
67893;DHT22;54688;52.376;16.744;2023-07-09T07:51:36;21.4;46
67893;DHT22;54688;52.376;16.744;2023-07-09T07:54:37;21.4;45
67893;DHT22;54688;52.376;16.744;2023-07-09T07:57:40;21.4;45.6
67893;DHT22;54688;52.376;16.744;2023-07-09T08:00:41;21.5;45.1
67893;DHT22;54688;52.376;16.744;2023-07-09T08:03:45;21.5;46.3
67893;DHT22;54688;52.376;16.744;2023-07-09T08:06:47;21.6;46.1
67893;DHT22;54688;52.376;16.744;2023-07-09T08:09:49;21.7;45.5
67893;DHT22;54688;52.376;16.744;2023-07-09T08:12:51;21.7;45.1
67893;DHT22;54688;52.376;16.744;2023-07-09T08:15:53;21.8;45.9
67893;DHT22;54688;52.376;16.744;2023-07-09T08:18:55;21.8;45.1
67893;DHT22;54688;52.376;16.744;2023-07-09T08:21:58;21.9;45.5
67893;DHT22;54688;52.376;16.744;2023-07-09T08:25:00;22;44.5
67893;DHT22;54688;52.376;16.744;2023-07-09T08:28:02;22;44.7
67893;DHT22;54688;52.376;16.744;2023-07-09T08:31:04;22;44.5
67893;DHT22;54688;52.376;16.744;2023-07-09T08:34:07;22;44.2
67893;DHT22;54688;52.376;16.744;2023-07-09T08:37:09;22.1;44.4
67893;DHT22;54688;52.376;16.744;2023-07-09T08:40:12;22.2;44.3
67893;DHT22;54688;52.376;16.744;2023-07-09T08:43:17;22.3;44.4
67893;DHT22;54688;52.376;16.744;2023-07-09T08:46:27;22.4;44
67893;DHT22;54688;52.376;16.744;2023-07-09T08:49:37;22.4;42.7
67893;DHT22;54688;52.376;16.744;2023-07-09T08:52:43;22.4;42.8
67893;DHT22;54688;52.376;16.744;2023-07-09T08:55:46;22.5;41
67893;DHT22;54688;52.376;16.744;2023-07-09T08:58:52;22.4;40.7
67893;DHT22;54688;52.376;16.744;2023-07-09T09:01:57;22.5;42.3
67893;DHT22;54688;52.376;16.744;2023-07-09T09:05:02;22.5;42.3
67893;DHT22;54688;52.376;16.744;2023-07-09T09:08:09;22.7;40.8
67893;DHT22;54688;52.376;16.744;2023-07-09T09:11:28;22.8;39.7
67893;DHT22;54688;52.376;16.744;2023-07-09T09:14:37;22.8;40
67893;DHT22;54688;52.376;16.744;2023-07-09T09:17:40;22.9;41.4
67893;DHT22;54688;52.376;16.744;2023-07-09T09:20:53;23.1;39.6
67893;DHT22;54688;52.376;16.744;2023-07-09T09:24:03;23.3;39
67893;DHT22;54688;52.376;16.744;2023-07-09T09:27:15;23.4;37.8
67893;DHT22;54688;52.376;16.744;2023-07-09T09:30:18;23.5;39.6
67893;DHT22;54688;52.376;16.744;2023-07-09T09:33:21;23.6;37.3
67893;DHT22;54688;52.376;16.744;2023-07-09T09:36:23;23.7;35.7
67893;DHT22;54688;52.376;16.744;2023-07-09T09:39:28;23.7;34.9
67893;DHT22;54688;52.376;16.744;2023-07-09T09:42:30;23.8;34.8
67893;DHT22;54688;52.376;16.744;2023-07-09T09:45:35;23.8;36.5
67893;DHT22;54688;52.376;16.744;2023-07-09T09:48:38;23.8;37.3
67893;DHT22;54688;52.376;16.744;2023-07-09T09:51:40;23.9;36.3
67893;DHT22;54688;52.376;16.744;2023-07-09T09:54:48;23.9;36.7
67893;DHT22;54688;52.376;16.744;2023-07-09T09:57:54;24.1;34.6
67893;DHT22;54688;52.376;16.744;2023-07-09T10:00:57;24.2;33.7
67893;DHT22;54688;52.376;16.744;2023-07-09T10:04:01;24.3;33.2
67893;DHT22;54688;52.376;16.744;2023-07-09T10:07:06;24.3;33.3
67893;DHT22;54688;52.376;16.744;2023-07-09T10:10:11;24.3;32.5
67893;DHT22;54688;52.376;16.744;2023-07-09T10:13:17;24.3;33.3
67893;DHT22;54688;52.376;16.744;2023-07-09T10:16:32;24.4;32.9
67893;DHT22;54688;52.376;16.744;2023-07-09T10:19:39;24.5;31.9
67893;DHT22;54688;52.376;16.744;2023-07-09T10:22:50;24.6;32.8
67893;DHT22;54688;52.376;16.744;2023-07-09T10:25:57;24.7;34.5
67893;DHT22;54688;52.376;16.744;2023-07-09T10:29:10;24.8;33.3
67893;DHT22;54688;52.376;16.744;2023-07-09T10:32:29;25;33.3
67893;DHT22;54688;52.376;16.744;2023-07-09T10:35:41;25.1;32.1
67893;DHT22;54688;52.376;16.744;2023-07-09T10:38:49;25.1;31.5
67893;DHT22;54688;52.376;16.744;2023-07-09T10:41:57;25.2;32.2
67893;DHT22;54688;52.376;16.744;2023-07-09T10:45:03;25.3;32.2
67893;DHT22;54688;52.376;16.744;2023-07-09T10:48:14;25.3;31.6
67893;DHT22;54688;52.376;16.744;2023-07-09T10:51:22;25.3;31.1
67893;DHT22;54688;52.376;16.744;2023-07-09T10:54:29;25.3;31.6
67893;DHT22;54688;52.376;16.744;2023-07-09T10:57:36;25.3;31
67893;DHT22;54688;52.376;16.744;2023-07-09T11:00:45;25.4;31
67893;DHT22;54688;52.376;16.744;2023-07-09T11:03:49;25.5;31.5
67893;DHT22;54688;52.376;16.744;2023-07-09T11:06:53;25.7;30.9
67893;DHT22;54688;52.376;16.744;2023-07-09T11:09:57;25.8;30.2
67893;DHT22;54688;52.376;16.744;2023-07-09T11:13:03;26;32.3
67893;DHT22;54688;52.376;16.744;2023-07-09T11:16:11;26.2;29.6
67893;DHT22;54688;52.376;16.744;2023-07-09T11:19:17;26.2;29.8
67893;DHT22;54688;52.376;16.744;2023-07-09T11:22:21;26.2;29.7
67893;DHT22;54688;52.376;16.744;2023-07-09T11:25:28;26.4;29.9
67893;DHT22;54688;52.376;16.744;2023-07-09T11:28:33;26.4;28.4
67893;DHT22;54688;52.376;16.744;2023-07-09T11:31:37;26.5;29.9
67893;DHT22;54688;52.376;16.744;2023-07-09T11:34:44;26.6;28.5
67893;DHT22;54688;52.376;16.744;2023-07-09T11:37:47;26.7;28.3
67893;DHT22;54688;52.376;16.744;2023-07-09T11:40:50;26.7;28
67893;DHT22;54688;52.376;16.744;2023-07-09T11:43:53;26.7;28.2
67893;DHT22;54688;52.376;16.744;2023-07-09T11:47:13;26.8;28.1
67893;DHT22;54688;52.376;16.744;2023-07-09T11:50:21;26.9;28.9
67893;DHT22;54688;52.376;16.744;2023-07-09T11:53:28;27.2;29.2
67893;DHT22;54688;52.376;16.744;2023-07-09T11:56:37;27.6;29.1
67893;DHT22;54688;52.376;16.744;2023-07-09T11:59:40;28;29.2
67893;DHT22;54688;52.376;16.744;2023-07-09T12:02:42;28.3;28.1
67893;DHT22;54688;52.376;16.744;2023-07-09T12:05:46;28.6;26.9
67893;DHT22;54688;52.376;16.744;2023-07-09T12:08:51;28.7;26.3
67893;DHT22;54688;52.376;16.744;2023-07-09T12:11:54;28.7;25.6
67893;DHT22;54688;52.376;16.744;2023-07-09T12:14:56;28.8;27.4
67893;DHT22;54688;52.376;16.744;2023-07-09T12:18:00;29;25.6
67893;DHT22;54688;52.376;16.744;2023-07-09T12:21:05;29.1;25.6
67893;DHT22;54688;52.376;16.744;2023-07-09T12:24:15;29.3;25.5
67893;DHT22;54688;52.376;16.744;2023-07-09T12:27:21;29.4;24.9
67893;DHT22;54688;52.376;16.744;2023-07-09T12:33:25;29.7;25
67893;DHT22;54688;52.376;16.744;2023-07-09T12:39:29;29.8;25
67893;DHT22;54688;52.376;16.744;2023-07-09T12:42:35;29.8;24.5
67893;DHT22;54688;52.376;16.744;2023-07-09T12:45:39;29.8;24.3
67893;DHT22;54688;52.376;16.744;2023-07-09T12:48:41;29.9;25.6
67893;DHT22;54688;52.376;16.744;2023-07-09T12:51:43;30.3;25.5
67893;DHT22;54688;52.376;16.744;2023-07-09T12:54:55;30.9;24.6
67893;DHT22;54688;52.376;16.744;2023-07-09T12:57:58;31.2;23.5
67893;DHT22;54688;52.376;16.744;2023-07-09T13:01:04;31.3;24
67893;DHT22;54688;52.376;16.744;2023-07-09T13:04:08;31.3;23.2
67893;DHT22;54688;52.376;16.744;2023-07-09T13:07:25;31.2;23.8
67893;DHT22;54688;52.376;16.744;2023-07-09T13:10:30;31.4;23.9
67893;DHT22;54688;52.376;16.744;2023-07-09T13:13:33;31.5;23.2
67893;DHT22;54688;52.376;16.744;2023-07-09T13:19:35;31.8;23.1
67893;DHT22;54688;52.376;16.744;2023-07-09T13:22:38;32.1;23.6
67893;DHT22;54688;52.376;16.744;2023-07-09T13:25:40;32.5;22.9
67893;DHT22;54688;52.376;16.744;2023-07-09T13:28:42;32.5;22.3
67893;DHT22;54688;52.376;16.744;2023-07-09T13:31:45;32.5;22.8
67893;DHT22;54688;52.376;16.744;2023-07-09T13:34:48;32.4;22.3
67893;DHT22;54688;52.376;16.744;2023-07-09T13:37:50;32.3;23
67893;DHT22;54688;52.376;16.744;2023-07-09T13:40:53;32.5;23.2
67893;DHT22;54688;52.376;16.744;2023-07-09T13:43:57;32.9;22.9
67893;DHT22;54688;52.376;16.744;2023-07-09T13:46:59;33.4;22.3
67893;DHT22;54688;52.376;16.744;2023-07-09T13:50:01;33.5;21.6
67893;DHT22;54688;52.376;16.744;2023-07-09T13:53:05;33.5;22.1
67893;DHT22;54688;52.376;16.744;2023-07-09T13:56:11;33.3;22.1
67893;DHT22;54688;52.376;16.744;2023-07-09T13:59:14;33.3;22.5
67893;DHT22;54688;52.376;16.744;2023-07-09T14:02:20;33.5;22.1
67893;DHT22;54688;52.376;16.744;2023-07-09T14:05:24;33.5;21.5
67893;DHT22;54688;52.376;16.744;2023-07-09T14:08:26;33.3;21.9
67893;DHT22;54688;52.376;16.744;2023-07-09T14:11:28;33.4;22.7
67893;DHT22;54688;52.376;16.744;2023-07-09T14:14:32;33.7;21.9
67893;DHT22;54688;52.376;16.744;2023-07-09T14:17:35;33.9;22
67893;DHT22;54688;52.376;16.744;2023-07-09T14:20:37;34.3;21.9
67893;DHT22;54688;52.376;16.744;2023-07-09T14:23:39;34.8;21.7
67893;DHT22;54688;52.376;16.744;2023-07-09T14:26:42;35.2;21.4
67893;DHT22;54688;52.376;16.744;2023-07-09T14:29:44;35.6;20.8
67893;DHT22;54688;52.376;16.744;2023-07-09T14:32:47;35.9;20.6
67893;DHT22;54688;52.376;16.744;2023-07-09T14:35:50;36.1;20.4
67893;DHT22;54688;52.376;16.744;2023-07-09T14:38:53;36.2;19.9
67893;DHT22;54688;52.376;16.744;2023-07-09T14:41:55;36.4;20.3
67893;DHT22;54688;52.376;16.744;2023-07-09T14:44:58;36.6;19.9
67893;DHT22;54688;52.376;16.744;2023-07-09T14:48:01;36.8;19.9
67893;DHT22;54688;52.376;16.744;2023-07-09T14:51:07;37.1;20.1
67893;DHT22;54688;52.376;16.744;2023-07-09T14:54:18;37.5;20.1
67893;DHT22;54688;52.376;16.744;2023-07-09T14:57:22;37.8;18.6
67893;DHT22;54688;52.376;16.744;2023-07-09T15:00:24;37.6;18.2
67893;DHT22;54688;52.376;16.744;2023-07-09T15:03:26;37.2;18.2
67893;DHT22;54688;52.376;16.744;2023-07-09T15:06:28;37.1;18.7
67893;DHT22;54688;52.376;16.744;2023-07-09T15:09:35;37.1;18.2
67893;DHT22;54688;52.376;16.744;2023-07-09T15:12:39;37.3;18.8
67893;DHT22;54688;52.376;16.744;2023-07-09T15:15:42;37.6;18.9
67893;DHT22;54688;52.376;16.744;2023-07-09T15:18:44;38.2;18.4
67893;DHT22;54688;52.376;16.744;2023-07-09T15:21:47;38.8;18.9
67893;DHT22;54688;52.376;16.744;2023-07-09T15:24:51;39.4;18.5
67893;DHT22;54688;52.376;16.744;2023-07-09T15:27:53;40;17.9
67893;DHT22;54688;52.376;16.744;2023-07-09T15:30:56;40.4;17.2
67893;DHT22;54688;52.376;16.744;2023-07-09T15:33:58;40.6;16.4
67893;DHT22;54688;52.376;16.744;2023-07-09T15:37:01;40.5;16.5
67893;DHT22;54688;52.376;16.744;2023-07-09T15:40:15;40.8;17.1
67893;DHT22;54688;52.376;16.744;2023-07-09T15:43:19;41.1;16.5
67893;DHT22;54688;52.376;16.744;2023-07-09T15:46:22;41.5;16.8
67893;DHT22;54688;52.376;16.744;2023-07-09T15:49:24;41.8;15.9
67893;DHT22;54688;52.376;16.744;2023-07-09T15:52:26;41.6;15.6
67893;DHT22;54688;52.376;16.744;2023-07-09T15:55:29;41.6;16
67893;DHT22;54688;52.376;16.744;2023-07-09T15:58:33;41.5;16.3
67893;DHT22;54688;52.376;16.744;2023-07-09T16:01:39;41.7;16.2
67893;DHT22;54688;52.376;16.744;2023-07-09T16:04:42;42;16.2
67893;DHT22;54688;52.376;16.744;2023-07-09T16:07:45;42.2;15.5
67893;DHT22;54688;52.376;16.744;2023-07-09T16:10:47;42.5;15.8
67893;DHT22;54688;52.376;16.744;2023-07-09T16:13:50;42.8;15.6
67893;DHT22;54688;52.376;16.744;2023-07-09T16:16:55;43;15.4
67893;DHT22;54688;52.376;16.744;2023-07-09T16:19:58;43.1;15.7
67893;DHT22;54688;52.376;16.744;2023-07-09T16:23:00;43.1;15.3
67893;DHT22;54688;52.376;16.744;2023-07-09T16:26:02;42.9;15.1
67893;DHT22;54688;52.376;16.744;2023-07-09T16:29:08;42.5;15.3
67893;DHT22;54688;52.376;16.744;2023-07-09T16:32:18;42.2;15.3
67893;DHT22;54688;52.376;16.744;2023-07-09T16:35:21;41.9;15.9
67893;DHT22;54688;52.376;16.744;2023-07-09T16:38:26;41.5;15.7
67893;DHT22;54688;52.376;16.744;2023-07-09T16:41:28;41.3;15.9
67893;DHT22;54688;52.376;16.744;2023-07-09T16:44:31;41.3;15.9
67893;DHT22;54688;52.376;16.744;2023-07-09T16:47:33;41.1;15.6
67893;DHT22;54688;52.376;16.744;2023-07-09T16:53:36;40.3;15.8
67893;DHT22;54688;52.376;16.744;2023-07-09T16:56:38;39.7;16
67893;DHT22;54688;52.376;16.744;2023-07-09T16:59:40;39.3;15.7
67893;DHT22;54688;52.376;16.744;2023-07-09T17:02:43;39.1;16.5
67893;DHT22;54688;52.376;16.744;2023-07-09T17:05:45;39;17.1
67893;DHT22;54688;52.376;16.744;2023-07-09T17:08:47;39.1;17.2
67893;DHT22;54688;52.376;16.744;2023-07-09T17:11:52;39.1;16.9
67893;DHT22;54688;52.376;16.744;2023-07-09T17:14:57;39;17.2
67893;DHT22;54688;52.376;16.744;2023-07-09T17:18:00;38.9;17.3
67893;DHT22;54688;52.376;16.744;2023-07-09T17:21:03;39.1;16.6
67893;DHT22;54688;52.376;16.744;2023-07-09T17:24:08;39.3;17.1
67893;DHT22;54688;52.376;16.744;2023-07-09T17:27:21;39.5;16.8
67893;DHT22;54688;52.376;16.744;2023-07-09T17:30:23;39.7;16.5
67893;DHT22;54688;52.376;16.744;2023-07-09T17:33:26;39.8;16.1
67893;DHT22;54688;52.376;16.744;2023-07-09T17:36:29;39.8;16.8
67893;DHT22;54688;52.376;16.744;2023-07-09T17:39:32;39.7;16.8
67893;DHT22;54688;52.376;16.744;2023-07-09T17:42:34;39.7;16.7
67893;DHT22;54688;52.376;16.744;2023-07-09T17:45:36;39.4;16.7
67893;DHT22;54688;52.376;16.744;2023-07-09T17:48:39;38.9;17.7
67893;DHT22;54688;52.376;16.744;2023-07-09T17:51:41;38.3;17.9
67893;DHT22;54688;52.376;16.744;2023-07-09T17:54:43;37.7;18.4
67893;DHT22;54688;52.376;16.744;2023-07-09T17:57:46;37.1;18.9
67893;DHT22;54688;52.376;16.744;2023-07-09T18:00:50;36.6;19.9
67893;DHT22;54688;52.376;16.744;2023-07-09T18:03:52;36.2;19.7
67893;DHT22;54688;52.376;16.744;2023-07-09T18:06:54;35.7;19.8
67893;DHT22;54688;52.376;16.744;2023-07-09T18:09:58;35.2;20.3
67893;DHT22;54688;52.376;16.744;2023-07-09T18:13:02;34.7;20.7
67893;DHT22;54688;52.376;16.744;2023-07-09T18:16:07;34.2;21.2
67893;DHT22;54688;52.376;16.744;2023-07-09T18:19:14;33.7;21.3
67893;DHT22;54688;52.376;16.744;2023-07-09T18:22:22;33.2;21.7
67893;DHT22;54688;52.376;16.744;2023-07-09T18:25:25;32.8;21.7
67893;DHT22;54688;52.376;16.744;2023-07-09T18:28:29;32.3;21.9
67893;DHT22;54688;52.376;16.744;2023-07-09T18:31:32;32;22.2
67893;DHT22;54688;52.376;16.744;2023-07-09T18:34:33;31.6;22.2
67893;DHT22;54688;52.376;16.744;2023-07-09T18:37:36;31.3;22.5
67893;DHT22;54688;52.376;16.744;2023-07-09T18:43:38;30.7;23.2
67893;DHT22;54688;52.376;16.744;2023-07-09T18:46:40;30.3;23.3
67893;DHT22;54688;52.376;16.744;2023-07-09T18:49:43;30;24
67893;DHT22;54688;52.376;16.744;2023-07-09T18:52:46;29.7;24.5
67893;DHT22;54688;52.376;16.744;2023-07-09T18:55:49;29.5;24.5
67893;DHT22;54688;52.376;16.744;2023-07-09T18:58:51;29.4;24.8
67893;DHT22;54688;52.376;16.744;2023-07-09T19:01:55;29.4;24.8
67893;DHT22;54688;52.376;16.744;2023-07-09T19:04:57;29.3;24.7
67893;DHT22;54688;52.376;16.744;2023-07-09T19:07:59;29.1;24.7
67893;DHT22;54688;52.376;16.744;2023-07-09T19:11:12;28.9;24.6
67893;DHT22;54688;52.376;16.744;2023-07-09T19:14:14;28.7;24.7
67893;DHT22;54688;52.376;16.744;2023-07-09T19:17:17;28.6;25
67893;DHT22;54688;52.376;16.744;2023-07-09T19:20:28;28.4;25.3
67893;DHT22;54688;52.376;16.744;2023-07-09T19:23:30;28.3;25.6
67893;DHT22;54688;52.376;16.744;2023-07-09T19:26:32;28.1;25.6
67893;DHT22;54688;52.376;16.744;2023-07-09T19:29:34;27.8;25.6
67893;DHT22;54688;52.376;16.744;2023-07-09T19:32:35;27.7;25.5
67893;DHT22;54688;52.376;16.744;2023-07-09T19:35:39;27.5;26.4
67893;DHT22;54688;52.376;16.744;2023-07-09T19:38:41;27.3;26.7
67893;DHT22;54688;52.376;16.744;2023-07-09T19:41:44;27.1;26.8
67893;DHT22;54688;52.376;16.744;2023-07-09T19:44:46;26.9;28.2
67893;DHT22;54688;52.376;16.744;2023-07-09T19:47:50;26.6;28.3
67893;DHT22;54688;52.376;16.744;2023-07-09T19:50:54;26.3;28.2
67893;DHT22;54688;52.376;16.744;2023-07-09T19:53:56;26.1;28.5
67893;DHT22;54688;52.376;16.744;2023-07-09T19:56:58;25.8;28.8
67893;DHT22;54688;52.376;16.744;2023-07-09T20:00:00;25.7;29.7
67893;DHT22;54688;52.376;16.744;2023-07-09T20:03:03;25.5;30.2
67893;DHT22;54688;52.376;16.744;2023-07-09T20:06:11;25.4;30.4
67893;DHT22;54688;52.376;16.744;2023-07-09T20:09:15;25.2;30.5